Time;durP1;ratioP1;P1;durP2;ratioP2;P2;SDS_P1;SDS_P2;PMS_P1;PMS_P2;Temp;Humidity;BMP_temperature;BMP_pressure;BME280_temperature;BME280_humidity;BME280_pressure;Samples;Min_cycle;Max_cycle;Signal;HPM_P1;HPM_P2
2023/01/09 00:02:10;;;;;;;;;;;;;;;-16.04;72.74;101397.13;4964402;28;20024;-60
2023/01/09 00:04:35;;;;;;;;;;;;;;;-16.20;73.20;101410.88;4965528;28;19930;-60
2023/01/09 00:07:03;;;;;;;;;;;;;;;-16.36;73.63;101415.03;4964948;28;19949;-61
2023/01/09 00:09:29;;;;;;;;;;;;;;;-16.45;74.10;101411.00;4968150;28;19937;-60
2023/01/09 00:11:54;;;;;;;;;;;;;;;-16.57;74.19;101412.31;4947623;28;19930;-60
2023/01/09 00:14:21;;;;;;;;;;;;;;;-16.65;74.47;101409.16;4963943;28;19934;-62
2023/01/09 00:16:47;;;;;;;;;;;;;;;-16.71;74.59;101415.47;4964326;28;19986;-60
2023/01/09 00:19:13;;;;;;;;;;;;;;;-16.79;74.72;101417.53;4950037;28;19934;-64
2023/01/09 00:21:39;;;;;;;;;;;;;;;-16.86;74.66;101411.66;4965357;28;20397;-60
2023/01/09 00:24:06;;;;;;;;;;;;;;;-16.87;74.99;101410.81;4968982;28;19985;-59
2023/01/09 00:26:32;;;;;;;;;;;;;;;-16.91;74.93;101411.00;4966095;28;19930;-59
2023/01/09 00:29:00;;;;;;;;;;;;;;;-16.95;75.04;101418.09;4950662;28;19930;-60
2023/01/09 00:31:26;;;;;;;;;;;;;;;-16.97;75.06;101417.31;4967121;28;20468;-59
2023/01/09 00:33:55;;;;;;;;;;;;;;;-17.05;75.04;101419.41;4949948;28;20034;-60
2023/01/09 00:36:20;;;;;;;;;;;;;;;-17.16;75.05;101420.63;4966603;28;20476;-59
2023/01/09 00:38:47;;;;;;;;;;;;;;;-17.21;75.01;101419.97;4967527;28;20029;-60
2023/01/09 00:41:18;;;;;;;;;;;;;;;-17.26;75.07;101417.50;4966539;28;19930;-59
2023/01/09 00:43:46;;;;;;;;;;;;;;;-17.23;75.20;101416.56;4965872;28;20325;-60
2023/01/09 00:46:12;;;;;;;;;;;;;;;-17.29;75.06;101415.00;4968605;28;20032;-59
2023/01/09 00:48:40;;;;;;;;;;;;;;;-17.37;75.04;101421.41;4968848;28;19937;-60
2023/01/09 00:51:07;;;;;;;;;;;;;;;-17.35;75.45;101412.59;4951291;28;19930;-59
2023/01/09 00:53:34;;;;;;;;;;;;;;;-17.21;75.26;101411.25;4965467;28;19930;-60
2023/01/09 00:56:03;;;;;;;;;;;;;;;-17.09;74.93;101417.78;4967032;28;20070;-59
2023/01/09 00:58:30;;;;;;;;;;;;;;;-17.16;74.07;101404.94;4949429;28;19929;-59
2023/01/09 01:00:56;;;;;;;;;;;;;;;-17.15;74.43;101406.63;4966109;28;19977;-59
2023/01/09 01:03:22;;;;;;;;;;;;;;;-17.16;74.16;101404.94;4964366;28;19930;-60
2023/01/09 01:08:32;;;;;;;;;;;;;;;-17.52;73.52;101404.50;4967932;28;19941;-58
2023/01/09 01:11:02;;;;;;;;;;;;;;;-17.69;73.71;101409.41;4966307;28;19930;-59
2023/01/09 01:13:28;;;;;;;;;;;;;;;-17.85;73.75;101411.69;4964528;28;20360;-58
2023/01/09 01:15:55;;;;;;;;;;;;;;;-17.99;73.78;101414.78;4965398;28;19930;-58
2023/01/09 01:18:20;;;;;;;;;;;;;;;-18.05;73.98;101420.22;4965827;28;19930;-60
2023/01/09 01:20:46;;;;;;;;;;;;;;;-18.08;74.14;101422.94;4965582;28;19930;-60
2023/01/09 01:23:12;;;;;;;;;;;;;;;-18.11;74.26;101418.66;4963680;28;19930;-58
2023/01/09 01:25:38;;;;;;;;;;;;;;;-18.15;73.55;101418.81;4964922;28;20036;-66
2023/01/09 01:28:04;;;;;;;;;;;;;;;-18.21;74.06;101419.00;4965905;28;19937;-60
2023/01/09 01:30:30;;;;;;;;;;;;;;;-18.17;74.32;101423.25;4966741;28;19984;-61
2023/01/09 01:32:58;;;;;;;;;;;;;;;-18.04;74.04;101421.91;4964862;28;19938;-59
2023/01/09 01:35:25;;;;;;;;;;;;;;;-17.93;73.46;101413.72;4967742;28;19930;-58
2023/01/09 01:37:51;;;;;;;;;;;;;;;-17.88;72.54;101424.00;4947877;28;20320;-59
2023/01/09 01:40:17;;;;;;;;;;;;;;;-17.93;72.44;101420.69;4965711;28;19930;-57
2023/01/09 01:42:46;;;;;;;;;;;;;;;-18.09;72.15;101423.00;4964007;28;19934;-58
2023/01/09 01:45:13;;;;;;;;;;;;;;;-18.26;71.79;101424.38;4964315;28;20282;-59
2023/01/09 01:47:42;;;;;;;;;;;;;;;-18.35;72.34;101430.75;4965461;28;19965;-58
2023/01/09 01:50:13;;;;;;;;;;;;;;;-18.38;72.29;101438.69;4964872;28;19953;-59
2023/01/09 01:52:39;;;;;;;;;;;;;;;-18.34;71.96;101442.06;4966575;28;20424;-65
2023/01/09 01:55:07;;;;;;;;;;;;;;;-18.31;71.61;101444.56;4967802;28;20421;-66
2023/01/09 01:57:33;;;;;;;;;;;;;;;-18.28;71.57;101436.63;4969232;28;19930;-65
2023/01/09 02:00:01;;;;;;;;;;;;;;;-18.26;71.25;101442.66;4957265;28;19930;-65
2023/01/09 02:02:31;;;;;;;;;;;;;;;-18.22;71.21;101449.50;4983409;28;19937;-64
2023/01/09 02:04:58;;;;;;;;;;;;;;;-18.17;71.12;101442.38;4969563;28;20065;-59
2023/01/09 02:07:25;;;;;;;;;;;;;;;-18.08;70.88;101448.22;4965894;28;20316;-56
2023/01/09 02:09:51;;;;;;;;;;;;;;;-18.06;70.84;101442.03;4962722;28;19977;-60
2023/01/09 02:12:18;;;;;;;;;;;;;;;-18.00;70.89;101441.81;4966671;28;19984;-59
2023/01/09 02:14:45;;;;;;;;;;;;;;;-17.91;70.55;101451.09;4967195;28;19938;-59
2023/01/09 02:17:47;;;;;;;;;;;;;;;-17.90;70.66;101449.34;4949718;28;19930;-58
2023/01/09 02:20:42;;;;;;;;;;;;;;;-17.93;70.16;101442.47;4966876;28;19978;-59
2023/01/09 02:23:34;;;;;;;;;;;;;;;-18.00;70.31;101444.44;4911624;29;19931;-59
2023/01/09 02:26:26;;;;;;;;;;;;;;;-18.38;70.29;101422.19;4909029;29;19972;-59
2023/01/09 02:29:11;;;;;;;;;;;;;;;-18.29;70.24;101445.38;4946929;28;19930;-59
2023/01/09 02:31:42;;;;;;;;;;;;;;;-18.38;70.79;101454.34;4947490;28;19961;-65
2023/01/09 02:34:12;;;;;;;;;;;;;;;-18.40;70.32;101454.41;4962282;28;19930;-67
2023/01/09 02:36:42;;;;;;;;;;;;;;;-18.37;70.58;101450.00;4946400;28;19976;-65
2023/01/09 02:39:15;;;;;;;;;;;;;;;-18.33;70.50;101462.03;4962110;28;20434;-66
2023/01/09 02:41:44;;;;;;;;;;;;;;;-18.33;70.45;101462.91;4961615;28;19930;-65
2023/01/09 02:44:11;;;;;;;;;;;;;;;-18.35;70.66;101464.69;4949641;28;19977;-65
2023/01/09 02:46:38;;;;;;;;;;;;;;;-18.42;69.98;101457.97;4963305;28;19930;-65
2023/01/09 02:49:04;;;;;;;;;;;;;;;-18.53;70.07;101453.06;4964264;28;19930;-65
2023/01/09 02:51:34;;;;;;;;;;;;;;;-18.62;70.33;101467.25;4947385;28;20397;-65
2023/01/09 02:54:10;;;;;;;;;;;;;;;-18.48;71.14;101464.22;4964137;28;19937;-65
2023/01/09 02:56:46;;;;;;;;;;;;;;;-18.31;70.58;101465.47;4966394;28;19929;-65
2023/01/09 02:59:17;;;;;;;;;;;;;;;-18.38;70.22;101463.97;4968939;28;19934;-65
2023/01/09 03:01:50;;;;;;;;;;;;;;;-18.52;70.01;101466.97;4969746;28;19930;-65
2023/01/09 03:04:20;;;;;;;;;;;;;;;-18.50;70.18;101467.78;4968474;28;19966;-65
2023/01/09 03:06:48;;;;;;;;;;;;;;;-18.50;70.04;101470.38;4971264;28;19937;-65
2023/01/09 03:09:15;;;;;;;;;;;;;;;-18.49;70.12;101467.75;4970907;28;19930;-60
2023/01/09 03:11:45;;;;;;;;;;;;;;;-18.52;70.04;101475.66;4965072;28;19945;-58
2023/01/09 03:14:13;;;;;;;;;;;;;;;-18.49;70.39;101467.75;4981059;28;19930;-60
2023/01/09 03:16:39;;;;;;;;;;;;;;;-18.45;69.99;101479.78;4966709;28;19985;-59
2023/01/09 03:19:09;;;;;;;;;;;;;;;-18.44;69.76;101478.88;4983196;28;20361;-59
2023/01/09 03:21:35;;;;;;;;;;;;;;;-18.45;69.86;101478.94;4966195;28;19930;-58
2023/01/09 03:24:01;;;;;;;;;;;;;;;-18.41;70.18;101475.34;4965940;28;19934;-57
2023/01/09 03:26:28;;;;;;;;;;;;;;;-18.35;70.09;101479.53;4965355;28;19934;-60
2023/01/09 03:28:54;;;;;;;;;;;;;;;-18.31;70.18;101475.91;4966532;28;19930;-59
2023/01/09 03:31:20;;;;;;;;;;;;;;;-18.32;69.79;101469.84;4963306;28;19930;-58
2023/01/09 03:33:46;;;;;;;;;;;;;;;-18.33;69.81;101483.81;4967052;28;20299;-59
2023/01/09 03:36:14;;;;;;;;;;;;;;;-18.34;69.82;101479.47;4972875;28;20459;-60
2023/01/09 03:38:40;;;;;;;;;;;;;;;-18.30;70.29;101486.31;4975200;28;20387;-59
2023/01/09 03:41:06;;;;;;;;;;;;;;;-18.24;69.74;101485.28;4973648;28;19930;-59
2023/01/09 03:43:32;;;;;;;;;;;;;;;-18.12;70.39;101492.72;4972227;28;20405;-56
2023/01/09 03:45:58;;;;;;;;;;;;;;;-18.01;69.77;101494.09;4970948;28;19933;-60
2023/01/09 03:48:24;;;;;;;;;;;;;;;-18.03;70.10;101488.94;4975392;28;19930;-60
2023/01/09 03:50:50;;;;;;;;;;;;;;;-18.04;69.48;101487.25;4977879;28;20446;-59
2023/01/09 03:53:17;;;;;;;;;;;;;;;-17.96;69.96;101486.97;4975828;28;19929;-62
2023/01/09 03:55:44;;;;;;;;;;;;;;;-17.92;69.78;101492.97;4974008;28;19936;-59
2023/01/09 03:58:10;;;;;;;;;;;;;;;-17.98;69.46;101496.63;4973923;28;19929;-58
2023/01/09 04:00:38;;;;;;;;;;;;;;;-18.03;69.87;101494.16;4976657;28;20282;-59
2023/01/09 04:03:03;;;;;;;;;;;;;;;-18.06;70.29;101491.66;4990257;28;19930;-59
2023/01/09 04:05:29;;;;;;;;;;;;;;;-18.12;69.85;101487.47;4973491;28;19952;-59
2023/01/09 04:07:55;;;;;;;;;;;;;;;-18.11;70.41;101486.56;4971495;28;19929;-59
2023/01/09 04:10:23;;;;;;;;;;;;;;;-18.08;70.36;101493.47;4976918;28;20093;-59
2023/01/09 04:12:49;;;;;;;;;;;;;;;-18.16;70.31;101495.50;4972672;28;19930;-58
2023/01/09 04:15:15;;;;;;;;;;;;;;;-18.22;70.61;101493.91;4968359;28;19938;-59
2023/01/09 04:17:41;;;;;;;;;;;;;;;-18.20;70.28;101499.06;4966908;28;19960;-58
2023/01/09 04:20:07;;;;;;;;;;;;;;;-18.23;70.71;101488.72;4966188;28;20029;-59
2023/01/09 04:22:33;;;;;;;;;;;;;;;-18.31;70.63;101496.81;4964987;28;19930;-60
2023/01/09 04:24:58;;;;;;;;;;;;;;;-18.31;71.16;101499.41;4965563;28;19998;-60
2023/01/09 04:27:26;;;;;;;;;;;;;;;-18.30;71.01;101501.13;4951414;28;20020;-59
2023/01/09 04:29:51;;;;;;;;;;;;;;;-18.23;70.91;101504.41;4966593;28;19929;-59
2023/01/09 04:32:17;;;;;;;;;;;;;;;-18.22;70.76;101508.72;4966802;28;20028;-62
2023/01/09 04:34:43;;;;;;;;;;;;;;;-18.17;71.01;101517.28;4963014;28;19930;-60
2023/01/09 04:37:08;;;;;;;;;;;;;;;-18.11;70.88;101510.09;4948021;28;19996;-60
2023/01/09 04:39:35;;;;;;;;;;;;;;;-18.11;71.27;101512.69;4965889;28;19957;-60
2023/01/09 04:42:00;;;;;;;;;;;;;;;-18.08;70.65;101513.53;4966652;28;20322;-61
2023/01/09 04:44:28;;;;;;;;;;;;;;;-18.00;71.19;101517.59;4968084;28;19937;-59
2023/01/09 04:46:54;;;;;;;;;;;;;;;-17.92;70.59;101525.19;4965941;28;19930;-59
2023/01/09 04:49:21;;;;;;;;;;;;;;;-17.93;70.44;101518.25;4959384;28;20206;-60
2023/01/09 04:51:47;;;;;;;;;;;;;;;-17.93;70.91;101526.09;4969372;28;19930;-58
2023/01/09 04:54:13;;;;;;;;;;;;;;;-17.90;70.59;101525.13;4964094;28;19936;-55
2023/01/09 04:56:38;;;;;;;;;;;;;;;-17.86;70.58;101535.44;4962478;28;19930;-58
2023/01/09 04:59:05;;;;;;;;;;;;;;;-17.84;70.34;101535.41;4963299;28;19952;-58
2023/01/09 05:01:32;;;;;;;;;;;;;;;-17.89;70.52;101532.91;4979308;28;19937;-59
2023/01/09 05:03:58;;;;;;;;;;;;;;;-17.88;70.48;101524.19;4962655;28;19938;-57
2023/01/09 05:06:23;;;;;;;;;;;;;;;-17.89;70.39;101522.47;4949514;28;20380;-59
2023/01/09 05:08:49;;;;;;;;;;;;;;;-17.87;70.54;101535.47;4962155;28;19957;-59
2023/01/09 05:11:15;;;;;;;;;;;;;;;-17.84;70.55;101536.22;4962050;28;20021;-66
2023/01/09 05:13:41;;;;;;;;;;;;;;;-17.86;70.51;101530.19;4965380;28;19945;-59
2023/01/09 05:16:07;;;;;;;;;;;;;;;-17.86;70.12;101538.03;4966457;28;20423;-61
2023/01/09 05:18:35;;;;;;;;;;;;;;;-17.89;70.45;101540.75;4964414;28;20013;-57
2023/01/09 05:21:00;;;;;;;;;;;;;;;-17.89;70.13;101534.66;4965897;28;20456;-56
2023/01/09 05:23:26;;;;;;;;;;;;;;;-17.89;70.33;101535.53;4966581;28;20037;-59
2023/01/09 05:25:52;;;;;;;;;;;;;;;-17.89;70.35;101532.06;4965753;28;20417;-64
2023/01/09 05:28:18;;;;;;;;;;;;;;;-17.83;70.57;101535.31;4967034;28;20373;-60
2023/01/09 05:30:43;;;;;;;;;;;;;;;-17.79;70.41;101541.31;4967552;28;20405;-65
2023/01/09 05:33:09;;;;;;;;;;;;;;;-17.69;70.71;101542.75;4969108;28;19977;-59
2023/01/09 05:35:36;;;;;;;;;;;;;;;-17.72;70.08;101547.22;4978967;28;20376;-61
2023/01/09 05:38:02;;;;;;;;;;;;;;;-17.67;70.44;101550.53;4966541;28;20021;-60
2023/01/09 05:40:28;;;;;;;;;;;;;;;-17.64;70.08;101552.19;4963179;28;20669;-58
2023/01/09 05:42:53;;;;;;;;;;;;;;;-17.66;69.92;101560.06;4943915;28;19941;-59
2023/01/09 05:45:19;;;;;;;;;;;;;;;-17.71;69.97;101559.38;4961528;28;19930;-59
2023/01/09 05:47:45;;;;;;;;;;;;;;;-17.70;69.61;101553.25;4959032;28;20424;-60
2023/01/09 05:50:11;;;;;;;;;;;;;;;-17.71;69.60;101559.38;4959970;28;20024;-58
2023/01/09 05:52:39;;;;;;;;;;;;;;;-17.80;69.28;101557.91;4957101;28;20030;-59
2023/01/09 05:55:05;;;;;;;;;;;;;;;-17.88;69.43;101568.59;4953503;28;20329;-58
2023/01/09 05:57:31;;;;;;;;;;;;;;;-17.92;69.72;101567.00;4963320;28;20329;-59
2023/01/09 05:59:57;;;;;;;;;;;;;;;-17.97;70.02;101566.25;4964195;28;19930;-59
2023/01/09 06:02:22;;;;;;;;;;;;;;;-17.89;70.02;101572.13;4968207;28;20029;-58
2023/01/09 06:04:48;;;;;;;;;;;;;;;-17.76;70.05;101577.81;4966930;28;19934;-57
2023/01/09 06:07:14;;;;;;;;;;;;;;;-17.77;69.77;101580.50;4967412;28;19930;-59
2023/01/09 06:09:41;;;;;;;;;;;;;;;-17.80;69.79;101575.34;4966507;28;19930;-58
2023/01/09 06:12:07;;;;;;;;;;;;;;;-17.78;69.58;101582.25;4968088;28;19930;-59
2023/01/09 06:14:33;;;;;;;;;;;;;;;-17.76;69.70;101575.19;4966730;28;20018;-64
2023/01/09 06:16:58;;;;;;;;;;;;;;;-17.74;69.71;101569.94;4977086;28;19996;-64
2023/01/09 06:19:24;;;;;;;;;;;;;;;-17.71;69.82;101580.28;4965228;28;19930;-58
2023/01/09 06:21:56;;;;;;;;;;;;;;;-17.68;69.38;101574.97;4963709;28;21198;-66
2023/01/09 06:24:22;;;;;;;;;;;;;;;-17.69;69.22;101581.97;4965186;28;19930;-64
2023/01/09 06:26:49;;;;;;;;;;;;;;;-17.70;69.23;101592.44;4966614;28;20369;-64
2023/01/09 06:29:15;;;;;;;;;;;;;;;-17.70;69.32;101589.84;4969170;28;19937;-65
2023/01/09 06:31:40;;;;;;;;;;;;;;;-17.65;69.58;101592.31;4971615;28;20028;-64
2023/01/09 06:34:07;;;;;;;;;;;;;;;-17.68;69.39;101590.66;4967587;28;19985;-64
2023/01/09 06:36:33;;;;;;;;;;;;;;;-17.65;69.41;101595.75;4967295;28;19934;-65
2023/01/09 06:38:58;;;;;;;;;;;;;;;-17.59;69.75;101592.97;4967532;28;20448;-64
2023/01/09 06:41:24;;;;;;;;;;;;;;;-17.56;69.17;101599.84;4971418;28;20359;-60
2023/01/09 06:43:51;;;;;;;;;;;;;;;-17.51;69.20;101599.72;4967965;28;19936;-60
2023/01/09 06:46:17;;;;;;;;;;;;;;;-17.49;69.37;101596.16;4970074;28;20017;-59
2023/01/09 06:48:43;;;;;;;;;;;;;;;-17.51;68.93;101603.19;4967544;28;20032;-58
2023/01/09 06:51:08;;;;;;;;;;;;;;;-17.55;69.38;101606.81;4967650;28;19952;-60
2023/01/09 06:53:34;;;;;;;;;;;;;;;-17.48;69.24;101608.31;4966293;28;19980;-58
2023/01/09 06:56:01;;;;;;;;;;;;;;;-17.41;69.20;101612.44;4966917;28;19957;-64
2023/01/09 06:58:27;;;;;;;;;;;;;;;-17.33;68.90;101611.34;4968254;28;19930;-64
2023/01/09 07:00:55;;;;;;;;;;;;;;;-17.28;68.92;101619.88;4966575;28;20405;-64
2023/01/09 07:03:21;;;;;;;;;;;;;;;-17.35;68.25;101619.22;4966946;28;19936;-64
2023/01/09 07:05:47;;;;;;;;;;;;;;;-17.35;68.67;101623.63;4969795;28;19930;-64
2023/01/09 07:08:13;;;;;;;;;;;;;;;-17.33;68.51;101624.44;4970817;28;20074;-59
2023/01/09 07:10:40;;;;;;;;;;;;;;;-17.29;68.68;101623.41;4983279;28;19930;-59
2023/01/09 07:13:05;;;;;;;;;;;;;;;-17.27;67.95;101624.22;4976752;28;20715;-59
2023/01/09 07:15:31;;;;;;;;;;;;;;;-17.21;68.23;101628.41;4966724;28;19956;-59
2023/01/09 07:17:58;;;;;;;;;;;;;;;-17.20;67.81;101630.97;4968538;28;19961;-59
2023/01/09 07:20:24;;;;;;;;;;;;;;;-17.17;67.94;101635.22;4967889;28;19930;-59
2023/01/09 07:22:54;;;;;;;;;;;;;;;-17.13;67.90;101629.00;4970814;28;20368;-62
2023/01/09 07:25:21;;;;;;;;;;;;;;;-17.14;67.18;101637.78;4970423;28;19929;-57
2023/01/09 07:27:47;;;;;;;;;;;;;;;-17.21;66.97;101642.34;4972399;28;19977;-58
2023/01/09 07:30:13;;;;;;;;;;;;;;;-17.37;66.60;101639.34;4972044;28;19938;-58
2023/01/09 07:32:39;;;;;;;;;;;;;;;-17.42;66.58;101639.50;4966408;28;19934;-58
2023/01/09 07:35:08;;;;;;;;;;;;;;;-17.52;66.59;101650.31;4968609;28;19933;-59
2023/01/09 07:37:34;;;;;;;;;;;;;;;-17.55;66.74;101641.66;4980878;28;20273;-59
2023/01/09 07:40:00;;;;;;;;;;;;;;;-17.56;66.73;101646.91;4967508;28;20227;-59
2023/01/09 07:42:25;;;;;;;;;;;;;;;-17.58;66.95;101639.13;4966707;28;20228;-59
2023/01/09 07:44:51;;;;;;;;;;;;;;;-17.59;66.72;101645.28;4962525;28;19937;-57
2023/01/09 07:47:17;;;;;;;;;;;;;;;-17.61;66.54;101643.59;4964865;28;19930;-59
2023/01/09 07:49:43;;;;;;;;;;;;;;;-17.69;66.56;101647.31;4966550;28;19936;-58
2023/01/09 07:52:10;;;;;;;;;;;;;;;-17.56;66.78;101649.53;4965369;28;19937;-59
2023/01/09 07:54:35;;;;;;;;;;;;;;;-17.47;66.56;101645.81;4964885;28;19930;-57
2023/01/09 07:57:01;;;;;;;;;;;;;;;-17.46;65.80;101655.34;4966995;28;19953;-59
2023/01/09 07:59:28;;;;;;;;;;;;;;;-17.48;65.43;101651.91;4968898;28;19997;-64
2023/01/09 08:01:54;;;;;;;;;;;;;;;-17.38;64.96;101655.97;4967144;28;19933;-59
2023/01/09 08:04:20;;;;;;;;;;;;;;;-17.38;65.00;101647.28;4965550;28;20017;-60
2023/01/09 08:06:46;;;;;;;;;;;;;;;-17.43;64.73;101661.31;4969039;28;19950;-65
2023/01/09 08:09:13;;;;;;;;;;;;;;;-17.52;64.23;101645.06;4968998;28;20016;-55
2023/01/09 08:11:39;;;;;;;;;;;;;;;-17.57;64.96;101640.84;4973575;28;20210;-58
2023/01/09 08:14:05;;;;;;;;;;;;;;;-17.51;64.77;101644.16;4971441;28;19953;-57
2023/01/09 08:16:31;;;;;;;;;;;;;;;-17.46;64.79;101653.59;4969726;28;19959;-56
2023/01/09 08:18:57;;;;;;;;;;;;;;;-17.45;64.60;101646.59;4965899;28;19992;-57
2023/01/09 08:21:23;;;;;;;;;;;;;;;-17.42;64.79;101647.34;4968908;28;19985;-59
2023/01/09 08:23:48;;;;;;;;;;;;;;;-17.46;64.85;101640.50;4967887;28;19934;-56
2023/01/09 08:26:15;;;;;;;;;;;;;;;-17.49;65.06;101645.84;4967078;28;19933;-59
2023/01/09 08:28:41;;;;;;;;;;;;;;;-17.46;65.11;101647.50;4966455;28;19937;-58
2023/01/09 08:31:07;;;;;;;;;;;;;;;-17.35;64.63;101647.16;4966882;28;19930;-59
2023/01/09 08:33:32;;;;;;;;;;;;;;;-17.22;64.88;101647.63;4966752;28;19930;-57
2023/01/09 08:35:58;;;;;;;;;;;;;;;-17.15;64.52;101642.13;4965535;28;20356;-60
2023/01/09 08:38:24;;;;;;;;;;;;;;;-17.08;63.99;101647.19;4965958;28;19934;-58
2023/01/09 08:40:50;;;;;;;;;;;;;;;-16.89;63.78;101653.47;4968392;28;19937;-58
2023/01/09 08:48:46;;;;;;;;;;;;;;;-17.17;64.08;101645.69;4982704;28;19930;-59
2023/01/09 08:51:12;;;;;;;;;;;;;;;-17.08;63.99;101640.16;4964882;28;19934;-58
2023/01/09 08:53:38;;;;;;;;;;;;;;;-17.02;63.75;101647.81;4961143;28;20309;-60
2023/01/09 08:56:04;;;;;;;;;;;;;;;-16.93;63.20;101656.25;4963413;28;19937;-59
2023/01/09 08:58:31;;;;;;;;;;;;;;;-16.98;63.12;101662.50;4963062;28;19930;-56
2023/01/09 09:00:57;;;;;;;;;;;;;;;-17.07;63.17;101657.59;4967995;28;19930;-57
2023/01/09 09:03:23;;;;;;;;;;;;;;;-17.00;63.43;101653.88;4965412;28;19937;-58
2023/01/09 09:05:49;;;;;;;;;;;;;;;-16.65;62.85;101653.53;4964977;28;19929;-58
2023/01/09 09:08:15;;;;;;;;;;;;;;;-16.07;62.23;101644.50;4965033;28;19930;-56
2023/01/09 09:10:41;;;;;;;;;;;;;;;-15.68;61.15;101649.13;4964658;28;20293;-59
2023/01/09 09:13:07;;;;;;;;;;;;;;;-15.36;59.60;101654.00;4965387;28;20426;-59
2023/01/09 09:15:36;;;;;;;;;;;;;;;-15.22;59.12;101642.09;4966634;28;19930;-64
2023/01/09 09:18:03;;;;;;;;;;;;;;;-15.12;58.93;101641.66;4966291;28;19942;-59
2023/01/09 09:20:30;;;;;;;;;;;;;;;-15.06;58.02;101645.81;4965039;28;19930;-57
2023/01/09 09:22:56;;;;;;;;;;;;;;;-15.04;58.10;101640.50;4965168;28;20415;-58
2023/01/09 09:25:22;;;;;;;;;;;;;;;-14.87;57.50;101645.03;4965722;28;19941;-57
2023/01/09 09:27:48;;;;;;;;;;;;;;;-14.89;56.98;101631.97;4965112;28;19937;-55
2023/01/09 09:30:15;;;;;;;;;;;;;;;-14.99;56.87;101633.28;4963785;28;19934;-59
2023/01/09 09:32:42;;;;;;;;;;;;;;;-14.98;57.16;101633.22;4948512;28;19930;-59
2023/01/09 09:35:09;;;;;;;;;;;;;;;-14.84;57.13;101629.13;4977965;28;19930;-58
2023/01/09 09:37:35;;;;;;;;;;;;;;;-14.72;56.68;101647.00;4979061;28;19933;-58
2023/01/09 09:40:01;;;;;;;;;;;;;;;-14.80;56.36;101636.00;4963399;28;19937;-59
2023/01/09 09:45:30;;;;;;;;;;;;;;;-14.85;56.43;101632.69;4981507;28;20424;-56
2023/01/09 09:48:05;;;;;;;;;;;;;;;-14.79;56.49;101637.69;4962941;28;19941;-56
2023/01/09 09:50:46;;;;;;;;;;;;;;;-14.78;55.33;101641.16;4956858;28;20001;-58
2023/01/09 09:53:15;;;;;;;;;;;;;;;-14.84;56.26;101643.13;4962280;28;19941;-58
2023/01/09 09:55:41;;;;;;;;;;;;;;;-14.57;55.72;101639.34;4980078;28;20086;-58
2023/01/09 09:58:20;;;;;;;;;;;;;;;-14.22;55.72;101642.19;4967942;28;19937;-58
2023/01/09 10:00:46;;;;;;;;;;;;;;;-14.13;54.92;101627.78;4965991;28;19930;-57
2023/01/09 10:03:21;;;;;;;;;;;;;;;-14.16;54.63;101630.56;4966361;28;19937;-60
2023/01/09 10:05:48;;;;;;;;;;;;;;;-14.44;54.57;101626.53;4970752;28;19930;-59
2023/01/09 10:08:19;;;;;;;;;;;;;;;-14.76;55.20;101634.94;4965917;28;19941;-58
2023/01/09 10:10:47;;;;;;;;;;;;;;;-14.80;56.02;101637.75;4969859;28;19930;-58
2023/01/09 10:16:05;;;;;;;;;;;;;;;-15.49;57.00;101637.91;4969962;28;20408;-64
2023/01/09 10:18:43;;;;;;;;;;;;;;;-15.59;57.94;101634.78;4969290;28;19930;-64
2023/01/09 10:21:14;;;;;;;;;;;;;;;-15.40;58.40;101637.53;4968957;28;20452;-64
2023/01/09 10:23:46;;;;;;;;;;;;;;;-15.20;57.74;101649.00;4975761;28;19930;-64
2023/01/09 10:26:15;;;;;;;;;;;;;;;-15.15;57.84;101646.16;4968465;28;19930;-64
2023/01/09 10:28:52;;;;;;;;;;;;;;;-15.08;57.31;101647.66;4983924;28;19930;-56
2023/01/09 10:31:21;;;;;;;;;;;;;;;-15.08;57.62;101652.03;4969929;28;20279;-64
2023/01/09 10:33:52;;;;;;;;;;;;;;;-15.13;57.46;101653.06;4948672;29;20258;-64
2023/01/09 10:36:28;;;;;;;;;;;;;;;-15.35;57.59;101650.47;4970305;28;19936;-64
2023/01/09 10:38:55;;;;;;;;;;;;;;;-15.47;58.45;101650.94;4969750;28;19930;-58
2023/01/09 10:41:23;;;;;;;;;;;;;;;-15.57;58.54;101655.69;4966999;28;19930;-59
2023/01/09 10:43:52;;;;;;;;;;;;;;;-15.28;59.11;101656.31;4969190;28;20037;-59
2023/01/09 10:46:21;;;;;;;;;;;;;;;-14.90;58.17;101653.91;4971219;28;20496;-58
2023/01/09 10:48:53;;;;;;;;;;;;;;;-14.95;57.51;101655.03;4970700;28;20195;-58
2023/01/09 10:51:20;;;;;;;;;;;;;;;-15.01;57.80;101650.88;4968709;28;20309;-59
2023/01/09 10:53:48;;;;;;;;;;;;;;;-15.14;57.93;101650.50;4969483;28;19977;-62
2023/01/09 10:56:17;;;;;;;;;;;;;;;-15.10;57.78;101657.34;4964544;28;19934;-60
2023/01/09 10:58:43;;;;;;;;;;;;;;;-15.14;58.03;101655.75;4971826;28;20305;-58
2023/01/09 11:01:09;;;;;;;;;;;;;;;-15.11;58.40;101666.16;4969439;28;20431;-57
2023/01/09 11:03:35;;;;;;;;;;;;;;;-15.08;57.99;101660.78;4969114;28;19930;-57
2023/01/09 11:06:02;;;;;;;;;;;;;;;-15.20;58.24;101663.88;4968960;28;19977;-60
2023/01/09 11:08:30;;;;;;;;;;;;;;;-14.98;58.50;101664.75;4969347;28;19930;-58
2023/01/09 11:10:57;;;;;;;;;;;;;;;-14.60;57.57;101653.47;4970127;28;19934;-60
2023/01/09 11:13:24;;;;;;;;;;;;;;;-14.56;57.38;101654.19;4968968;28;19977;-59
2023/01/09 11:16:00;;;;;;;;;;;;;;;-14.25;57.21;101656.34;4967274;28;20227;-60
2023/01/09 11:18:26;;;;;;;;;;;;;;;-13.95;56.18;101654.19;4968335;28;19980;-59
2023/01/09 11:20:52;;;;;;;;;;;;;;;-13.85;56.16;101653.69;4970218;28;20442;-56
2023/01/09 11:23:24;;;;;;;;;;;;;;;-14.03;55.57;101659.81;4951619;28;19934;-60
2023/01/09 11:25:51;;;;;;;;;;;;;;;-14.12;55.93;101661.06;4968581;28;19977;-58
2023/01/09 11:28:17;;;;;;;;;;;;;;;-13.88;56.21;101661.75;4975561;28;20320;-58
2023/01/09 11:30:50;;;;;;;;;;;;;;;-13.72;56.28;101663.66;4977143;28;19934;-59
2023/01/09 11:33:19;;;;;;;;;;;;;;;-13.73;55.72;101669.84;4978812;28;19930;-58
2023/01/09 11:35:57;;;;;;;;;;;;;;;-13.86;56.01;101678.31;4966554;28;20356;-59
2023/01/09 11:38:24;;;;;;;;;;;;;;;-13.76;55.57;101673.47;4950488;28;19941;-58
2023/01/09 11:40:51;;;;;;;;;;;;;;;-13.69;55.61;101668.78;4966524;28;19930;-59
2023/01/09 11:43:19;;;;;;;;;;;;;;;-13.81;54.80;101683.38;4966739;28;19969;-59
2023/01/09 11:45:47;;;;;;;;;;;;;;;-13.68;55.98;101679.22;4966510;28;19936;-58
2023/01/09 11:48:17;;;;;;;;;;;;;;;-13.55;54.95;101673.38;4967926;28;19934;-59
2023/01/09 11:50:51;;;;;;;;;;;;;;;-13.79;54.99;101683.28;4983712;28;20381;-60
2023/01/09 11:53:17;;;;;;;;;;;;;;;-14.29;55.46;101667.91;4968241;28;20591;-61
2023/01/09 11:55:45;;;;;;;;;;;;;;;-14.23;56.04;101679.09;4967387;28;20420;-60
2023/01/09 11:58:13;;;;;;;;;;;;;;;-13.97;56.05;101673.53;4973309;28;19961;-65
2023/01/09 12:00:47;;;;;;;;;;;;;;;-13.74;55.85;101668.13;4967727;28;19937;-64
2023/01/09 12:03:19;;;;;;;;;;;;;;;-13.83;54.97;101665.00;4965777;28;19984;-64
2023/01/09 12:05:51;;;;;;;;;;;;;;;-14.08;55.35;101660.00;4967980;28;20424;-64
2023/01/09 12:08:23;;;;;;;;;;;;;;;-14.08;55.08;101667.03;4967255;28;19937;-64
2023/01/09 12:11:04;;;;;;;;;;;;;;;-14.40;55.45;101644.72;4966435;28;19942;-65
2023/01/09 12:13:41;;;;;;;;;;;;;;;-14.20;55.34;101665.81;4965700;28;19965;-64
2023/01/09 12:16:10;;;;;;;;;;;;;;;-14.39;55.56;101671.88;4961983;28;20413;-65
2023/01/09 12:18:43;;;;;;;;;;;;;;;-14.45;56.11;101672.13;4960625;28;20174;-64
2023/01/09 12:21:16;;;;;;;;;;;;;;;-14.49;56.18;101671.44;4946391;28;20025;-65
2023/01/09 12:23:48;;;;;;;;;;;;;;;-14.73;56.18;101673.38;4964777;28;19930;-65
2023/01/09 12:26:18;;;;;;;;;;;;;;;-14.75;56.87;101673.41;4969207;28;19994;-65
2023/01/09 12:28:53;;;;;;;;;;;;;;;-14.74;57.07;101672.50;4965534;28;20504;-65
2023/01/09 12:31:24;;;;;;;;;;;;;;;-14.86;57.02;101667.75;4981942;28;19941;-64
2023/01/09 12:33:53;;;;;;;;;;;;;;;-15.03;57.36;101671.09;4964458;28;20004;-64
2023/01/09 12:36:24;;;;;;;;;;;;;;;-15.37;57.86;101675.91;4967759;28;19930;-64
2023/01/09 12:38:53;;;;;;;;;;;;;;;-15.75;58.65;101675.66;4967968;28;20385;-64
2023/01/09 12:41:38;;;;;;;;;;;;;;;-16.13;59.69;101663.91;4950152;28;19960;-64
2023/01/09 12:44:15;;;;;;;;;;;;;;;-16.68;60.79;101674.59;4967250;28;19929;-58
2023/01/09 12:46:44;;;;;;;;;;;;;;;-17.18;62.30;101673.63;4964408;28;20457;-64